Forest fire From: 18-06-2018 11:00 Until: 19-06-2018 10:14 warning for: Forest fire Level: Yellow info button
suomi:
Metsäpalovaroitus on voimassa.

svenska:
Varning för skogsbrand gäller.

english:
A forest fire warning is in force. 


Thunder radar more information blitzortung!


Löydät sääaseman tiedot myös:

European Weather Network

Finland Weather Exchange

Weather Underground

AWEKAS



Weather Underground säähistoriasivu

Päivittäin yhteenveto Tammikuu 12, 2017 Yksiköt:  Englantilaiset    Metriset   Molemmat
« Edellinen Päivä
Seuraava Päivä »
Päivittäin Viikoittain Kuukausittain Vuosittain Mukautettu
  Korkea: Matala: Keskiarvo:
Lämpötila: TemperatureC °F -2.9 °F -2.1 °F
Kastepiste: DewpointC °F -5.7 °F -4.2 °F
Kosteus: Humidity % 77 % 84 %
Tuulen nopeus: WindSpeedKMH mph 0.0 mph 0 mph
Tuulenpuuska: WindSpeedGustKMH mph - -
Tuuli:- - North
Ilmanpaine: PressurehPa in 977.5 in -
Sade: 0.0 in    
Historical Graphs
 
 
Taulukkotiedot Tammikuu 12, 2017
Aika Lämpötila Kastepiste Ilmanpaine Tuuli Tuulen nopeus Tuulenpuuska Kosteus Sademäärä (tunneittain)
TemperatureC °F DewpointC °F PressurehPa in Calm     Humidity % HourlyPrecipMM in
00:00 -1.7 °F -5.2 °F 984.3 in Calm     77 % 0.0 in
00:15 -1.8 °F -5.2 °F 984.0 in Calm     78 % 0.0 in
00:30 -1.9 °F -5.2 °F 984.0 in Calm     78 % 0.0 in
00:45 -2.0 °F -5.2 °F 984.0 in Calm     79 % 0.0 in
01:00 -2.1 °F -5.2 °F 983.6 in Calm     79 % 0.0 in
01:15 -2.1 °F -5.4 °F 983.6 in Calm     78 % 0.0 in
01:30 -2.1 °F -5.6 °F 983.0 in Calm     77 % 0.0 in
01:45 -2.1 °F -5.6 °F 982.6 in Calm     77 % 0.0 in
02:00 -2.2 °F -5.5 °F 982.3 in Calm     78 % 0.0 in
02:15 -2.3 °F -5.6 °F 982.3 in Calm     78 % 0.0 in
02:30 -2.3 °F -5.6 °F 981.9 in Calm     78 % 0.0 in
02:45 -2.3 °F -5.6 °F 981.9 in Calm     78 % 0.0 in
03:00 -2.4 °F -5.7 °F 981.9 in Calm     78 % 0.0 in
03:15 -2.3 °F -5.5 °F 981.3 in Calm     79 % 0.0 in
03:30 -2.3 °F -5.6 °F 981.3 in Calm     78 % 0.0 in
03:45 -2.3 °F -5.4 °F 980.9 in Calm     79 % 0.0 in
04:00 -2.3 °F -5.2 °F 980.6 in Calm     81 % 0.0 in
04:15 -2.6 °F -4.7 °F 980.6 in Calm     85 % 0.0 in
04:30 -2.8 °F -4.5 °F 980.2 in Calm     88 % 0.0 in
04:45 -2.9 °F -4.4 °F 980.2 in Calm     89 % 0.0 in
05:00 -2.9 °F -4.4 °F 979.9 in Calm     90 % 0.0 in
05:15 -2.8 °F -4.2 °F 979.9 in Calm     90 % 0.0 in
05:30 -2.6 °F -4.3 °F 979.6 in Calm     88 % 0.0 in
05:45 -2.3 °F -4.3 °F 979.6 in Calm     86 % 0.0 in
06:00 -2.1 °F -4.2 °F 979.6 in Calm     85 % 0.0 in
06:15 -1.9 °F -4.3 °F 979.2 in Calm     84 % 0.0 in
06:30 -1.8 °F -4.2 °F 979.2 in Calm     84 % 0.0 in
06:45 -1.8 °F -4.0 °F 978.9 in Calm     85 % 0.0 in
07:00 -1.8 °F -4.1 °F 978.9 in Calm     84 % 0.0 in
07:15 -1.7 °F -4.1 °F 978.9 in Calm     84 % 0.0 in
07:30 -1.7 °F -4.1 °F 978.6 in Calm     84 % 0.0 in
07:45 -1.8 °F -4.1 °F 978.6 in Calm     84 % 0.0 in
08:00 -1.8 °F -4.2 °F 978.6 in Calm     84 % 0.0 in
08:15 -1.9 °F -4.2 °F 978.6 in Calm     84 % 0.0 in
08:30 -1.9 °F -4.1 °F 978.2 in Calm     85 % 0.0 in
08:45 -2.1 °F -4.2 °F 978.2 in Calm     85 % 0.0 in
09:00 -2.2 °F -4.2 °F 978.2 in Calm     86 % 0.0 in
09:15 -2.2 °F -4.2 °F 978.2 in Calm     86 % 0.0 in
09:30 -2.2 °F -4.1 °F 978.2 in Calm     87 % 0.0 in
09:45 -2.2 °F -4.1 °F 978.2 in Calm     87 % 0.0 in
10:00 -2.2 °F -4.1 °F 978.2 in Calm     87 % 0.0 in
10:15 -2.2 °F -4.0 °F 978.2 in Calm     87 % 0.0 in
10:30 -2.1 °F -4.1 °F 978.2 in Calm     86 % 0.0 in
10:45 -2.1 °F -4.1 °F 978.2 in Calm     86 % 0.0 in
11:00 -2.1 °F -3.9 °F 977.9 in Calm     87 % 0.0 in
11:15 -2.2 °F -3.9 °F 977.9 in Calm     88 % 0.0 in
11:30 -2.2 °F -3.9 °F 977.9 in Calm     88 % 0.0 in
11:45 -2.3 °F -4.0 °F 977.9 in Calm     88 % 0.0 in
12:00 -2.3 °F -4.0 °F 977.9 in Calm     88 % 0.0 in
12:15 -2.3 °F -4.2 °F 977.9 in Calm     87 % 0.0 in
12:30 -2.3 °F -4.2 °F 977.9 in Calm     87 % 0.0 in
12:45 -2.3 °F -4.2 °F 977.5 in Calm     87 % 0.0 in
13:00 -2.3 °F -4.1 °F 977.9 in Calm     87 % 0.0 in
13:15 -2.3 °F -4.2 °F 977.5 in Calm     87 % 0.0 in
13:30 -2.5 °F -4.1 °F 977.9 in Calm     89 % 0.0 in
13:45 -2.4 °F -4.2 °F 977.9 in Calm     88 % 0.0 in
14:00 -2.5 °F -4.1 °F 977.9 in Calm     89 % 0.0 in
14:15 -2.5 °F -3.9 °F 977.9 in Calm     90 % 0.0 in
14:30 -2.6 °F -4.0 °F 977.9 in Calm     90 % 0.0 in
14:45 -2.6 °F -3.9 °F 977.9 in Calm     91 % 0.0 in
15:00 -2.6 °F -3.7 °F 977.9 in Calm     92 % 0.0 in
15:15 -2.3 °F -3.7 °F 977.9 in Calm     90 % 0.0 in
15:30 -2.0 °F -3.6 °F 978.2 in Calm     89 % 0.0 in
15:45 -1.8 °F -3.6 °F 978.6 in Calm     88 % 0.0 in
16:00 -1.7 °F -3.6 °F 978.6 in Calm     87 % 0.0 in
16:15 -1.7 °F -3.5 °F 979.2 in Calm     87 % 0.0 in
16:30 -1.7 °F -3.7 °F 979.2 in Calm     86 % 0.0 in
16:45 -1.7 °F -3.7 °F 979.2 in Calm     86 % 0.0 in
17:00 -1.7 °F -3.8 °F 979.2 in Calm     86 % 0.0 in
17:15 -1.8 °F -3.8 °F 979.6 in Calm     86 % 0.0 in
17:30 -1.8 °F -3.9 °F 979.6 in Calm     86 % 0.0 in
17:45 -1.8 °F -3.9 °F 979.9 in Calm     86 % 0.0 in
18:00 -1.8 °F -3.9 °F 979.9 in Calm     86 % 0.0 in
18:15 -1.8 °F -3.9 °F 979.9 in Calm     86 % 0.0 in
18:30 -1.8 °F -3.9 °F 979.9 in Calm     86 % 0.0 in
18:45 -1.8 °F -3.9 °F 979.9 in Calm     86 % 0.0 in
19:00 -1.8 °F -3.8 °F 979.9 in Calm     86 % 0.0 in
19:15 -1.8 °F -3.8 °F 979.9 in Calm     86 % 0.0 in
19:30 -1.8 °F -3.8 °F 980.2 in Calm     86 % 0.0 in
19:45 -1.8 °F -3.9 °F 980.2 in Calm     86 % 0.0 in
20:00 -1.8 °F -3.7 °F 980.2 in Calm     87 % 0.0 in
20:15 -1.8 °F -3.7 °F 980.2 in Calm     87 % 0.0 in
20:30 -1.8 °F -3.7 °F 980.2 in Calm     87 % 0.0 in
20:45 -1.8 °F -3.7 °F 979.9 in Calm     87 % 0.0 in
21:00 -1.8 °F -3.9 °F 980.2 in Calm     86 % 0.0 in
21:15 -1.8 °F -3.8 °F 980.2 in Calm     86 % 0.0 in
21:30 -1.8 °F -3.7 °F 980.2 in Calm     87 % 0.0 in
21:45 -1.8 °F -3.9 °F 980.2 in Calm     86 % 0.0 in
22:00 -1.9 °F -3.8 °F 980.6 in Calm     87 % 0.0 in
22:15 -1.9 °F -3.8 °F 980.6 in Calm     87 % 0.0 in
22:30 -1.9 °F -3.8 °F 980.6 in Calm     87 % 0.0 in
22:45 -1.9 °F -3.8 °F 980.6 in Calm     87 % 0.0 in
23:00 -1.9 °F -3.8 °F 980.6 in Calm     87 % 0.0 in
23:15 -1.9 °F -3.8 °F 980.6 in Calm     87 % 0.0 in
23:30 -1.9 °F -3.8 °F 980.6 in Calm     87 % 0.0 in
23:45 -1.8 °F -3.7 °F 980.9 in Calm     87 % 0.0 in
Esan sääasema
Terveisin Weather Underground - 2.75 mb

Alkuperäinen skripti  Jim McMurry - jmcmurry@mwt.net Sovitettu myös templatelle  Wim van der Kuil - Leuven-Template.eu

Laitteet joita käytämme:

Sääasema
Davis VP2

Sääasemaohjelma
Cumulus

Sääaseman tietokone
Asus EeePC

Palveluntarjoaja
Suncomet

Davis VP2

Cumulus

Asus EeePC

Suncomet